TAF KRBL
AMD KRBL 080400Z 0804/0824 15010KT 1SM BR OVC002 TEMPO 0806/0810 1/2SM FG FM081100 18003KT 4SM BR OVC003 FM081500 20003KT P6SM OVC003 FM081700 21003KT P6SM OVC015 TEMPO 0820/0824 6SM -RA OVC007=
METAR KRBL
WC KRBL
WS KRBL
WV KRBL